sensor_id;sensor_type;location;lat;lon;timestamp;temperature;humidity
39045;DHT22;52192;52.002;5.956;2024-02-26T00:00:43;8.60;76.90
39045;DHT22;52192;52.002;5.956;2024-02-26T00:03:12;8.60;77.00
39045;DHT22;52192;52.002;5.956;2024-02-26T00:05:38;8.50;77.00
39045;DHT22;52192;52.002;5.956;2024-02-26T00:08:04;8.60;77.00
39045;DHT22;52192;52.002;5.956;2024-02-26T00:10:31;8.60;77.00
39045;DHT22;52192;52.002;5.956;2024-02-26T00:12:57;8.50;76.90
39045;DHT22;52192;52.002;5.956;2024-02-26T00:15:23;8.50;76.90
39045;DHT22;52192;52.002;5.956;2024-02-26T00:17:50;8.50;76.90
39045;DHT22;52192;52.002;5.956;2024-02-26T00:20:15;8.50;76.90
39045;DHT22;52192;52.002;5.956;2024-02-26T00:22:41;8.50;76.90
39045;DHT22;52192;52.002;5.956;2024-02-26T00:25:08;8.50;77.00
39045;DHT22;52192;52.002;5.956;2024-02-26T00:27:33;8.50;77.00
39045;DHT22;52192;52.002;5.956;2024-02-26T00:29:59;8.50;77.00
39045;DHT22;52192;52.002;5.956;2024-02-26T00:32:25;8.50;77.00
39045;DHT22;52192;52.002;5.956;2024-02-26T00:34:51;8.50;77.00
39045;DHT22;52192;52.002;5.956;2024-02-26T00:37:18;8.50;77.00
39045;DHT22;52192;52.002;5.956;2024-02-26T00:39:44;8.50;77.10
39045;DHT22;52192;52.002;5.956;2024-02-26T00:42:12;8.40;77.10
39045;DHT22;52192;52.002;5.956;2024-02-26T00:44:38;8.40;77.10
39045;DHT22;52192;52.002;5.956;2024-02-26T00:47:04;8.40;77.10
39045;DHT22;52192;52.002;5.956;2024-02-26T00:49:29;8.40;77.20
39045;DHT22;52192;52.002;5.956;2024-02-26T00:51:55;8.40;77.20
39045;DHT22;52192;52.002;5.956;2024-02-26T00:54:22;8.40;77.10
39045;DHT22;52192;52.002;5.956;2024-02-26T00:56:47;8.40;77.10
39045;DHT22;52192;52.002;5.956;2024-02-26T00:59:13;8.30;77.10
39045;DHT22;52192;52.002;5.956;2024-02-26T01:01:39;8.30;77.20
39045;DHT22;52192;52.002;5.956;2024-02-26T01:04:05;8.40;77.20
39045;DHT22;52192;52.002;5.956;2024-02-26T01:06:31;8.40;77.10
39045;DHT22;52192;52.002;5.956;2024-02-26T01:08:57;8.40;77.00
39045;DHT22;52192;52.002;5.956;2024-02-26T01:11:23;8.40;77.10
39045;DHT22;52192;52.002;5.956;2024-02-26T01:13:50;8.50;77.10
39045;DHT22;52192;52.002;5.956;2024-02-26T01:16:24;8.50;77.00
39045;DHT22;52192;52.002;5.956;2024-02-26T01:18:50;8.50;76.90
39045;DHT22;52192;52.002;5.956;2024-02-26T01:21:16;8.50;76.90
39045;DHT22;52192;52.002;5.956;2024-02-26T01:23:42;8.50;76.80
39045;DHT22;52192;52.002;5.956;2024-02-26T01:26:08;8.60;76.70
39045;DHT22;52192;52.002;5.956;2024-02-26T01:28:34;8.60;76.70
39045;DHT22;52192;52.002;5.956;2024-02-26T01:31:00;8.60;76.70
39045;DHT22;52192;52.002;5.956;2024-02-26T01:33:26;8.60;76.70
39045;DHT22;52192;52.002;5.956;2024-02-26T01:35:52;8.60;76.60
39045;DHT22;52192;52.002;5.956;2024-02-26T01:38:18;8.60;76.60
39045;DHT22;52192;52.002;5.956;2024-02-26T01:40:45;8.50;76.60
39045;DHT22;52192;52.002;5.956;2024-02-26T01:43:11;8.50;76.70
39045;DHT22;52192;52.002;5.956;2024-02-26T01:45:37;8.50;77.20
39045;DHT22;52192;52.002;5.956;2024-02-26T01:48:03;8.50;76.80
39045;DHT22;52192;52.002;5.956;2024-02-26T01:50:29;8.40;76.80
39045;DHT22;52192;52.002;5.956;2024-02-26T01:52:55;8.50;76.80
39045;DHT22;52192;52.002;5.956;2024-02-26T01:55:24;8.40;76.80
39045;DHT22;52192;52.002;5.956;2024-02-26T01:57:51;8.50;76.90
39045;DHT22;52192;52.002;5.956;2024-02-26T02:00:18;8.50;76.80
39045;DHT22;52192;52.002;5.956;2024-02-26T02:02:45;8.50;76.80
39045;DHT22;52192;52.002;5.956;2024-02-26T02:05:15;8.50;77.50
39045;DHT22;52192;52.002;5.956;2024-02-26T02:07:43;8.50;76.80
39045;DHT22;52192;52.002;5.956;2024-02-26T02:10:09;8.50;76.70
39045;DHT22;52192;52.002;5.956;2024-02-26T02:12:35;8.50;77.20
39045;DHT22;52192;52.002;5.956;2024-02-26T02:15:04;8.50;76.60
39045;DHT22;52192;52.002;5.956;2024-02-26T02:17:31;8.50;77.20
39045;DHT22;52192;52.002;5.956;2024-02-26T02:19:57;8.50;76.60
39045;DHT22;52192;52.002;5.956;2024-02-26T02:22:23;8.50;76.60
39045;DHT22;52192;52.002;5.956;2024-02-26T02:24:50;8.50;76.70
39045;DHT22;52192;52.002;5.956;2024-02-26T02:27:16;8.50;76.70
39045;DHT22;52192;52.002;5.956;2024-02-26T02:29:42;8.50;76.80
39045;DHT22;52192;52.002;5.956;2024-02-26T02:32:09;8.50;76.80
39045;DHT22;52192;52.002;5.956;2024-02-26T02:34:35;8.50;76.80
39045;DHT22;52192;52.002;5.956;2024-02-26T02:37:01;8.50;76.80
39045;DHT22;52192;52.002;5.956;2024-02-26T02:39:27;8.50;77.40
39045;DHT22;52192;52.002;5.956;2024-02-26T02:41:53;8.50;76.80
39045;DHT22;52192;52.002;5.956;2024-02-26T02:44:19;8.50;76.80
39045;DHT22;52192;52.002;5.956;2024-02-26T02:46:45;8.50;76.70
39045;DHT22;52192;52.002;5.956;2024-02-26T02:49:11;8.50;76.80
39045;DHT22;52192;52.002;5.956;2024-02-26T02:51:37;8.40;76.80
39045;DHT22;52192;52.002;5.956;2024-02-26T02:54:04;8.40;76.90
39045;DHT22;52192;52.002;5.956;2024-02-26T02:56:30;8.40;76.90
39045;DHT22;52192;52.002;5.956;2024-02-26T02:58:56;8.40;77.00
39045;DHT22;52192;52.002;5.956;2024-02-26T03:01:22;8.40;77.00
39045;DHT22;52192;52.002;5.956;2024-02-26T03:03:48;8.30;77.00
39045;DHT22;52192;52.002;5.956;2024-02-26T03:06:13;8.30;77.10
39045;DHT22;52192;52.002;5.956;2024-02-26T03:08:39;8.30;77.10
39045;DHT22;52192;52.002;5.956;2024-02-26T03:11:07;8.30;77.20
39045;DHT22;52192;52.002;5.956;2024-02-26T03:13:33;8.30;77.30
39045;DHT22;52192;52.002;5.956;2024-02-26T03:16:05;8.30;77.30
39045;DHT22;52192;52.002;5.956;2024-02-26T03:18:31;8.30;77.30
39045;DHT22;52192;52.002;5.956;2024-02-26T03:20:57;8.30;77.30
39045;DHT22;52192;52.002;5.956;2024-02-26T03:23:23;8.30;77.20
39045;DHT22;52192;52.002;5.956;2024-02-26T03:25:49;8.30;77.20
39045;DHT22;52192;52.002;5.956;2024-02-26T03:28:15;8.40;77.20
39045;DHT22;52192;52.002;5.956;2024-02-26T03:30:41;8.40;77.10
39045;DHT22;52192;52.002;5.956;2024-02-26T03:33:07;8.40;77.20
39045;DHT22;52192;52.002;5.956;2024-02-26T03:35:33;8.40;77.10
39045;DHT22;52192;52.002;5.956;2024-02-26T03:37:59;8.40;77.00
39045;DHT22;52192;52.002;5.956;2024-02-26T03:40:25;8.40;77.00
39045;DHT22;52192;52.002;5.956;2024-02-26T03:42:51;8.40;76.90
39045;DHT22;52192;52.002;5.956;2024-02-26T03:45:19;8.40;76.90
39045;DHT22;52192;52.002;5.956;2024-02-26T03:47:45;8.50;76.90
39045;DHT22;52192;52.002;5.956;2024-02-26T03:50:11;8.50;76.80
39045;DHT22;52192;52.002;5.956;2024-02-26T03:52:37;8.50;76.80
39045;DHT22;52192;52.002;5.956;2024-02-26T03:55:03;8.50;76.70
39045;DHT22;52192;52.002;5.956;2024-02-26T03:57:30;8.50;76.70
39045;DHT22;52192;52.002;5.956;2024-02-26T03:59:56;8.50;76.70
39045;DHT22;52192;52.002;5.956;2024-02-26T04:02:22;8.40;76.70
39045;DHT22;52192;52.002;5.956;2024-02-26T04:04:49;8.40;76.80
39045;DHT22;52192;52.002;5.956;2024-02-26T04:07:15;8.40;76.90
39045;DHT22;52192;52.002;5.956;2024-02-26T04:09:41;8.30;77.00
39045;DHT22;52192;52.002;5.956;2024-02-26T04:12:07;8.30;77.10
39045;DHT22;52192;52.002;5.956;2024-02-26T04:14:33;8.30;77.10
39045;DHT22;52192;52.002;5.956;2024-02-26T04:16:59;8.30;77.10
39045;DHT22;52192;52.002;5.956;2024-02-26T04:19:25;8.30;77.20
39045;DHT22;52192;52.002;5.956;2024-02-26T04:21:51;8.30;77.30
39045;DHT22;52192;52.002;5.956;2024-02-26T04:24:17;8.30;77.20
39045;DHT22;52192;52.002;5.956;2024-02-26T04:26:43;8.30;77.20
39045;DHT22;52192;52.002;5.956;2024-02-26T04:29:09;8.30;77.20
39045;DHT22;52192;52.002;5.956;2024-02-26T04:31:36;8.20;77.20
39045;DHT22;52192;52.002;5.956;2024-02-26T04:34:02;8.20;77.30
39045;DHT22;52192;52.002;5.956;2024-02-26T04:36:28;8.20;77.50
39045;DHT22;52192;52.002;5.956;2024-02-26T04:38:54;8.10;77.50
39045;DHT22;52192;52.002;5.956;2024-02-26T04:41:21;8.10;77.60
39045;DHT22;52192;52.002;5.956;2024-02-26T04:43:47;8.10;77.70
39045;DHT22;52192;52.002;5.956;2024-02-26T04:46:13;8.10;77.80
39045;DHT22;52192;52.002;5.956;2024-02-26T04:48:39;8.10;77.90
39045;DHT22;52192;52.002;5.956;2024-02-26T04:51:07;8.10;78.00
39045;DHT22;52192;52.002;5.956;2024-02-26T04:53:33;8.00;78.00
39045;DHT22;52192;52.002;5.956;2024-02-26T04:55:59;8.00;78.00
39045;DHT22;52192;52.002;5.956;2024-02-26T04:58:25;8.10;78.00
39045;DHT22;52192;52.002;5.956;2024-02-26T05:00:51;8.00;78.00
39045;DHT22;52192;52.002;5.956;2024-02-26T05:03:17;8.00;78.20
39045;DHT22;52192;52.002;5.956;2024-02-26T05:05:43;8.00;78.40
39045;DHT22;52192;52.002;5.956;2024-02-26T05:08:09;7.90;78.50
39045;DHT22;52192;52.002;5.956;2024-02-26T05:10:36;7.90;78.70
39045;DHT22;52192;52.002;5.956;2024-02-26T05:13:05;7.90;78.70
39045;DHT22;52192;52.002;5.956;2024-02-26T05:15:31;7.90;78.80
39045;DHT22;52192;52.002;5.956;2024-02-26T05:17:58;7.90;78.80
39045;DHT22;52192;52.002;5.956;2024-02-26T05:20:24;7.90;78.80
39045;DHT22;52192;52.002;5.956;2024-02-26T05:22:50;7.90;78.90
39045;DHT22;52192;52.002;5.956;2024-02-26T05:25:17;7.90;79.20
39045;DHT22;52192;52.002;5.956;2024-02-26T05:27:44;7.90;78.90
39045;DHT22;52192;52.002;5.956;2024-02-26T05:30:11;7.90;79.00
39045;DHT22;52192;52.002;5.956;2024-02-26T05:32:37;7.90;79.10
39045;DHT22;52192;52.002;5.956;2024-02-26T05:35:03;7.90;79.00
39045;DHT22;52192;52.002;5.956;2024-02-26T05:37:30;7.90;79.10
39045;DHT22;52192;52.002;5.956;2024-02-26T05:39:56;7.90;79.20
39045;DHT22;52192;52.002;5.956;2024-02-26T05:42:22;7.90;79.40
39045;DHT22;52192;52.002;5.956;2024-02-26T05:44:48;7.90;79.50
39045;DHT22;52192;52.002;5.956;2024-02-26T05:47:14;7.80;79.60
39045;DHT22;52192;52.002;5.956;2024-02-26T05:49:40;7.80;79.90
39045;DHT22;52192;52.002;5.956;2024-02-26T05:52:06;7.80;80.00
39045;DHT22;52192;52.002;5.956;2024-02-26T05:54:32;7.70;80.00
39045;DHT22;52192;52.002;5.956;2024-02-26T05:56:58;7.70;80.10
39045;DHT22;52192;52.002;5.956;2024-02-26T05:59:24;7.70;80.20
39045;DHT22;52192;52.002;5.956;2024-02-26T06:01:50;7.70;80.40
39045;DHT22;52192;52.002;5.956;2024-02-26T06:04:16;7.70;80.30
39045;DHT22;52192;52.002;5.956;2024-02-26T06:06:45;7.80;80.30
39045;DHT22;52192;52.002;5.956;2024-02-26T06:09:13;7.70;80.20
39045;DHT22;52192;52.002;5.956;2024-02-26T06:11:39;7.80;80.30
39045;DHT22;52192;52.002;5.956;2024-02-26T06:14:05;7.80;80.30
39045;DHT22;52192;52.002;5.956;2024-02-26T06:16:30;7.80;80.40
39045;DHT22;52192;52.002;5.956;2024-02-26T06:18:56;7.70;80.40
39045;DHT22;52192;52.002;5.956;2024-02-26T06:21:22;7.80;80.60
39045;DHT22;52192;52.002;5.956;2024-02-26T06:23:48;7.70;80.50
39045;DHT22;52192;52.002;5.956;2024-02-26T06:26:14;7.70;80.60
39045;DHT22;52192;52.002;5.956;2024-02-26T06:28:40;7.70;80.70
39045;DHT22;52192;52.002;5.956;2024-02-26T06:31:06;7.70;80.70
39045;DHT22;52192;52.002;5.956;2024-02-26T06:33:32;7.70;80.80
39045;DHT22;52192;52.002;5.956;2024-02-26T06:35:57;7.80;80.80
39045;DHT22;52192;52.002;5.956;2024-02-26T06:38:23;7.80;80.70
39045;DHT22;52192;52.002;5.956;2024-02-26T06:40:49;7.70;80.70
39045;DHT22;52192;52.002;5.956;2024-02-26T06:43:15;7.70;80.70
39045;DHT22;52192;52.002;5.956;2024-02-26T06:45:40;7.70;80.80
39045;DHT22;52192;52.002;5.956;2024-02-26T06:48:06;7.80;80.90
39045;DHT22;52192;52.002;5.956;2024-02-26T06:50:32;7.80;81.00
39045;DHT22;52192;52.002;5.956;2024-02-26T06:52:58;7.70;81.00
39045;DHT22;52192;52.002;5.956;2024-02-26T06:55:23;7.80;81.10
39045;DHT22;52192;52.002;5.956;2024-02-26T06:57:49;7.70;81.00
39045;DHT22;52192;52.002;5.956;2024-02-26T07:00:15;7.70;81.00
39045;DHT22;52192;52.002;5.956;2024-02-26T07:02:42;7.80;81.10
39045;DHT22;52192;52.002;5.956;2024-02-26T07:05:08;7.70;81.10
39045;DHT22;52192;52.002;5.956;2024-02-26T07:07:34;7.70;81.20
39045;DHT22;52192;52.002;5.956;2024-02-26T07:10:00;7.80;81.30
39045;DHT22;52192;52.002;5.956;2024-02-26T07:12:29;7.70;81.10
39045;DHT22;52192;52.002;5.956;2024-02-26T07:14:55;7.80;81.20
39045;DHT22;52192;52.002;5.956;2024-02-26T07:17:20;7.70;81.30
39045;DHT22;52192;52.002;5.956;2024-02-26T07:19:46;7.70;81.40
39045;DHT22;52192;52.002;5.956;2024-02-26T07:22:12;7.70;81.40
39045;DHT22;52192;52.002;5.956;2024-02-26T07:24:37;7.70;81.40
39045;DHT22;52192;52.002;5.956;2024-02-26T07:27:03;7.70;81.40
39045;DHT22;52192;52.002;5.956;2024-02-26T07:29:29;7.80;81.40
39045;DHT22;52192;52.002;5.956;2024-02-26T07:31:55;7.80;81.40
39045;DHT22;52192;52.002;5.956;2024-02-26T07:34:21;7.70;81.50
39045;DHT22;52192;52.002;5.956;2024-02-26T07:36:53;7.80;81.70
39045;DHT22;52192;52.002;5.956;2024-02-26T07:39:19;7.80;81.70
39045;DHT22;52192;52.002;5.956;2024-02-26T07:41:44;7.80;81.70
39045;DHT22;52192;52.002;5.956;2024-02-26T07:44:13;7.70;81.80
39045;DHT22;52192;52.002;5.956;2024-02-26T07:46:39;7.70;81.90
39045;DHT22;52192;52.002;5.956;2024-02-26T07:49:05;7.70;81.90
39045;DHT22;52192;52.002;5.956;2024-02-26T07:51:30;7.80;82.00
39045;DHT22;52192;52.002;5.956;2024-02-26T07:53:56;7.80;82.00
39045;DHT22;52192;52.002;5.956;2024-02-26T07:56:22;7.80;81.90
39045;DHT22;52192;52.002;5.956;2024-02-26T07:58:48;7.80;81.90
39045;DHT22;52192;52.002;5.956;2024-02-26T08:01:14;7.80;82.00
39045;DHT22;52192;52.002;5.956;2024-02-26T08:03:40;7.90;81.90
39045;DHT22;52192;52.002;5.956;2024-02-26T08:06:07;7.80;82.20
39045;DHT22;52192;52.002;5.956;2024-02-26T08:08:33;7.80;82.40
39045;DHT22;52192;52.002;5.956;2024-02-26T08:10:58;7.80;82.60
39045;DHT22;52192;52.002;5.956;2024-02-26T08:13:24;7.80;82.60
39045;DHT22;52192;52.002;5.956;2024-02-26T08:15:50;7.80;82.60
39045;DHT22;52192;52.002;5.956;2024-02-26T08:18:15;7.80;82.70
39045;DHT22;52192;52.002;5.956;2024-02-26T08:20:41;7.80;82.80
39045;DHT22;52192;52.002;5.956;2024-02-26T08:23:07;7.70;82.90
39045;DHT22;52192;52.002;5.956;2024-02-26T08:25:32;7.70;82.90
39045;DHT22;52192;52.002;5.956;2024-02-26T08:27:58;7.70;83.00
39045;DHT22;52192;52.002;5.956;2024-02-26T08:30:24;7.70;83.10
39045;DHT22;52192;52.002;5.956;2024-02-26T08:32:50;7.80;83.10
39045;DHT22;52192;52.002;5.956;2024-02-26T08:35:15;7.70;83.10
39045;DHT22;52192;52.002;5.956;2024-02-26T08:37:44;7.80;83.20
39045;DHT22;52192;52.002;5.956;2024-02-26T08:40:11;7.80;83.20
39045;DHT22;52192;52.002;5.956;2024-02-26T08:42:37;7.80;83.20
39045;DHT22;52192;52.002;5.956;2024-02-26T08:45:02;7.70;83.30
39045;DHT22;52192;52.002;5.956;2024-02-26T08:47:28;7.70;83.60
39045;DHT22;52192;52.002;5.956;2024-02-26T08:49:54;7.70;83.50
39045;DHT22;52192;52.002;5.956;2024-02-26T08:52:20;7.70;83.60
39045;DHT22;52192;52.002;5.956;2024-02-26T08:54:47;7.70;83.60
39045;DHT22;52192;52.002;5.956;2024-02-26T08:57:13;7.70;83.60
39045;DHT22;52192;52.002;5.956;2024-02-26T08:59:38;7.80;84.30
39045;DHT22;52192;52.002;5.956;2024-02-26T09:02:04;7.80;83.70
39045;DHT22;52192;52.002;5.956;2024-02-26T09:04:30;7.80;83.70
39045;DHT22;52192;52.002;5.956;2024-02-26T09:06:55;7.80;83.60
39045;DHT22;52192;52.002;5.956;2024-02-26T09:09:21;7.80;83.60
39045;DHT22;52192;52.002;5.956;2024-02-26T09:11:48;7.80;83.60
39045;DHT22;52192;52.002;5.956;2024-02-26T09:14:17;7.80;83.80
39045;DHT22;52192;52.002;5.956;2024-02-26T09:16:42;7.80;83.90
39045;DHT22;52192;52.002;5.956;2024-02-26T09:19:08;7.90;84.00
39045;DHT22;52192;52.002;5.956;2024-02-26T09:21:34;7.90;84.00
39045;DHT22;52192;52.002;5.956;2024-02-26T09:23:59;7.90;84.00
39045;DHT22;52192;52.002;5.956;2024-02-26T09:26:25;7.90;84.00
39045;DHT22;52192;52.002;5.956;2024-02-26T09:28:51;8.00;84.00
39045;DHT22;52192;52.002;5.956;2024-02-26T09:31:17;8.00;84.00
39045;DHT22;52192;52.002;5.956;2024-02-26T09:33:43;8.00;83.90
39045;DHT22;52192;52.002;5.956;2024-02-26T09:36:09;8.00;84.00
39045;DHT22;52192;52.002;5.956;2024-02-26T09:38:36;8.00;84.10
39045;DHT22;52192;52.002;5.956;2024-02-26T09:41:04;8.00;84.20
39045;DHT22;52192;52.002;5.956;2024-02-26T09:43:35;8.00;84.20
39045;DHT22;52192;52.002;5.956;2024-02-26T09:46:02;8.00;84.20
39045;DHT22;52192;52.002;5.956;2024-02-26T09:48:29;8.10;84.30
39045;DHT22;52192;52.002;5.956;2024-02-26T09:50:55;8.10;84.80
39045;DHT22;52192;52.002;5.956;2024-02-26T09:53:22;8.10;84.30
39045;DHT22;52192;52.002;5.956;2024-02-26T09:55:48;8.10;84.40
39045;DHT22;52192;52.002;5.956;2024-02-26T09:58:14;8.10;84.50
39045;DHT22;52192;52.002;5.956;2024-02-26T10:00:46;8.10;84.50
39045;DHT22;52192;52.002;5.956;2024-02-26T10:03:17;8.00;84.40
39045;DHT22;52192;52.002;5.956;2024-02-26T10:05:44;8.10;84.50
39045;DHT22;52192;52.002;5.956;2024-02-26T10:08:11;8.10;84.40
39045;DHT22;52192;52.002;5.956;2024-02-26T10:10:39;8.10;84.40
39045;DHT22;52192;52.002;5.956;2024-02-26T10:13:04;8.10;84.40
39045;DHT22;52192;52.002;5.956;2024-02-26T10:15:36;8.10;84.50
39045;DHT22;52192;52.002;5.956;2024-02-26T10:18:07;8.10;84.40
39045;DHT22;52192;52.002;5.956;2024-02-26T10:20:33;8.10;84.50
39045;DHT22;52192;52.002;5.956;2024-02-26T10:23:02;8.10;84.60
39045;DHT22;52192;52.002;5.956;2024-02-26T10:25:28;8.10;84.50
39045;DHT22;52192;52.002;5.956;2024-02-26T10:28:00;8.10;84.60
39045;DHT22;52192;52.002;5.956;2024-02-26T10:30:29;8.10;84.70
39045;DHT22;52192;52.002;5.956;2024-02-26T10:32:56;8.10;84.80
39045;DHT22;52192;52.002;5.956;2024-02-26T10:35:22;8.00;84.80
39045;DHT22;52192;52.002;5.956;2024-02-26T10:37:48;8.00;84.90
39045;DHT22;52192;52.002;5.956;2024-02-26T10:40:15;8.00;84.90
39045;DHT22;52192;52.002;5.956;2024-02-26T10:42:41;8.00;85.00
39045;DHT22;52192;52.002;5.956;2024-02-26T10:45:08;8.10;84.90
39045;DHT22;52192;52.002;5.956;2024-02-26T10:47:38;8.10;84.90
39045;DHT22;52192;52.002;5.956;2024-02-26T10:50:06;8.10;84.90
39045;DHT22;52192;52.002;5.956;2024-02-26T10:52:34;8.10;84.80
39045;DHT22;52192;52.002;5.956;2024-02-26T10:55:04;8.10;84.70
39045;DHT22;52192;52.002;5.956;2024-02-26T10:57:35;8.20;84.80
39045;DHT22;52192;52.002;5.956;2024-02-26T11:00:03;8.20;84.80
39045;DHT22;52192;52.002;5.956;2024-02-26T11:02:34;8.10;84.80
39045;DHT22;52192;52.002;5.956;2024-02-26T11:05:04;8.20;84.80
39045;DHT22;52192;52.002;5.956;2024-02-26T11:07:31;8.20;84.80
39045;DHT22;52192;52.002;5.956;2024-02-26T11:10:00;8.20;84.80
39045;DHT22;52192;52.002;5.956;2024-02-26T11:12:27;8.20;84.90
39045;DHT22;52192;52.002;5.956;2024-02-26T11:14:54;8.20;85.00
39045;DHT22;52192;52.002;5.956;2024-02-26T11:17:22;8.20;85.00
39045;DHT22;52192;52.002;5.956;2024-02-26T11:19:50;8.20;85.00
39045;DHT22;52192;52.002;5.956;2024-02-26T11:22:17;8.20;85.00
39045;DHT22;52192;52.002;5.956;2024-02-26T11:24:43;8.20;85.00
39045;DHT22;52192;52.002;5.956;2024-02-26T11:27:10;8.20;85.00
39045;DHT22;52192;52.002;5.956;2024-02-26T11:29:50;8.20;85.00
39045;DHT22;52192;52.002;5.956;2024-02-26T11:32:16;8.20;84.90
39045;DHT22;52192;52.002;5.956;2024-02-26T11:34:42;8.20;85.00
39045;DHT22;52192;52.002;5.956;2024-02-26T11:37:12;8.10;85.60
39045;DHT22;52192;52.002;5.956;2024-02-26T11:39:41;8.10;85.20
39045;DHT22;52192;52.002;5.956;2024-02-26T11:42:08;8.10;85.30
39045;DHT22;52192;52.002;5.956;2024-02-26T11:44:34;8.10;85.30
39045;DHT22;52192;52.002;5.956;2024-02-26T11:47:22;8.20;85.40
39045;DHT22;52192;52.002;5.956;2024-02-26T11:49:48;8.20;85.30
39045;DHT22;52192;52.002;5.956;2024-02-26T11:52:15;8.20;85.30
39045;DHT22;52192;52.002;5.956;2024-02-26T11:54:54;8.20;85.30
39045;DHT22;52192;52.002;5.956;2024-02-26T11:59:48;8.30;85.30
39045;DHT22;52192;52.002;5.956;2024-02-26T12:05:16;8.40;85.10
39045;DHT22;52192;52.002;5.956;2024-02-26T12:07:47;8.30;85.20
39045;DHT22;52192;52.002;5.956;2024-02-26T12:10:20;8.30;85.20
39045;DHT22;52192;52.002;5.956;2024-02-26T12:12:46;8.30;85.20
39045;DHT22;52192;52.002;5.956;2024-02-26T12:15:15;8.30;85.30
39045;DHT22;52192;52.002;5.956;2024-02-26T12:17:41;8.30;85.30
39045;DHT22;52192;52.002;5.956;2024-02-26T12:20:10;8.30;85.30
39045;DHT22;52192;52.002;5.956;2024-02-26T12:22:39;8.40;85.30
39045;DHT22;52192;52.002;5.956;2024-02-26T12:25:08;8.40;85.30
39045;DHT22;52192;52.002;5.956;2024-02-26T12:27:34;8.40;85.30
39045;DHT22;52192;52.002;5.956;2024-02-26T12:30:01;8.40;85.30
39045;DHT22;52192;52.002;5.956;2024-02-26T12:32:28;8.40;85.40
39045;DHT22;52192;52.002;5.956;2024-02-26T12:34:54;8.30;85.50
39045;DHT22;52192;52.002;5.956;2024-02-26T12:37:20;8.30;85.70
39045;DHT22;52192;52.002;5.956;2024-02-26T12:39:46;8.30;85.70
39045;DHT22;52192;52.002;5.956;2024-02-26T12:42:11;8.40;85.70
39045;DHT22;52192;52.002;5.956;2024-02-26T12:44:37;8.40;85.60
39045;DHT22;52192;52.002;5.956;2024-02-26T12:47:04;8.40;85.60
39045;DHT22;52192;52.002;5.956;2024-02-26T12:49:30;8.50;85.60
39045;DHT22;52192;52.002;5.956;2024-02-26T12:51:56;8.50;85.60
39045;DHT22;52192;52.002;5.956;2024-02-26T12:54:31;8.50;85.50
39045;DHT22;52192;52.002;5.956;2024-02-26T12:56:58;8.60;85.50
39045;DHT22;52192;52.002;5.956;2024-02-26T12:59:24;8.60;85.40
39045;DHT22;52192;52.002;5.956;2024-02-26T13:01:50;8.60;85.30
39045;DHT22;52192;52.002;5.956;2024-02-26T13:04:16;8.60;85.20
39045;DHT22;52192;52.002;5.956;2024-02-26T13:06:43;8.60;85.20
39045;DHT22;52192;52.002;5.956;2024-02-26T13:09:12;8.60;85.40
39045;DHT22;52192;52.002;5.956;2024-02-26T13:11:40;8.60;85.50
39045;DHT22;52192;52.002;5.956;2024-02-26T13:14:05;8.60;85.50
39045;DHT22;52192;52.002;5.956;2024-02-26T13:16:32;8.60;85.50
39045;DHT22;52192;52.002;5.956;2024-02-26T13:19:11;8.60;85.70
39045;DHT22;52192;52.002;5.956;2024-02-26T13:21:37;8.60;85.50
39045;DHT22;52192;52.002;5.956;2024-02-26T13:24:03;8.70;85.60
39045;DHT22;52192;52.002;5.956;2024-02-26T13:26:28;8.70;85.60
39045;DHT22;52192;52.002;5.956;2024-02-26T13:29:01;8.70;85.60
39045;DHT22;52192;52.002;5.956;2024-02-26T13:31:28;8.70;85.50
39045;DHT22;52192;52.002;5.956;2024-02-26T13:33:54;8.70;85.50
39045;DHT22;52192;52.002;5.956;2024-02-26T13:36:22;8.70;85.50
39045;DHT22;52192;52.002;5.956;2024-02-26T13:38:52;8.80;85.50
39045;DHT22;52192;52.002;5.956;2024-02-26T13:41:18;8.80;85.50
39045;DHT22;52192;52.002;5.956;2024-02-26T13:43:44;8.80;85.40
39045;DHT22;52192;52.002;5.956;2024-02-26T13:46:10;8.80;85.40
39045;DHT22;52192;52.002;5.956;2024-02-26T13:48:38;8.80;85.30
39045;DHT22;52192;52.002;5.956;2024-02-26T13:51:04;8.90;85.40
39045;DHT22;52192;52.002;5.956;2024-02-26T13:53:30;8.90;85.30
39045;DHT22;52192;52.002;5.956;2024-02-26T13:55:55;8.90;85.20
39045;DHT22;52192;52.002;5.956;2024-02-26T13:58:22;9.00;85.20
39045;DHT22;52192;52.002;5.956;2024-02-26T14:00:49;9.00;85.00
39045;DHT22;52192;52.002;5.956;2024-02-26T14:03:15;9.00;85.00
39045;DHT22;52192;52.002;5.956;2024-02-26T14:05:41;9.00;85.00
39045;DHT22;52192;52.002;5.956;2024-02-26T14:08:08;9.10;85.00
39045;DHT22;52192;52.002;5.956;2024-02-26T14:10:34;9.10;85.00
39045;DHT22;52192;52.002;5.956;2024-02-26T14:13:00;9.10;85.00
39045;DHT22;52192;52.002;5.956;2024-02-26T14:15:25;9.10;85.00
39045;DHT22;52192;52.002;5.956;2024-02-26T14:17:54;9.00;85.00
39045;DHT22;52192;52.002;5.956;2024-02-26T14:20:22;9.00;85.20
39045;DHT22;52192;52.002;5.956;2024-02-26T14:22:52;9.00;85.20
39045;DHT22;52192;52.002;5.956;2024-02-26T14:25:19;9.10;85.10
39045;DHT22;52192;52.002;5.956;2024-02-26T14:27:46;9.10;85.10
39045;DHT22;52192;52.002;5.956;2024-02-26T14:30:13;9.10;85.10
39045;DHT22;52192;52.002;5.956;2024-02-26T14:32:39;9.10;85.00
39045;DHT22;52192;52.002;5.956;2024-02-26T14:35:09;9.20;85.00
39045;DHT22;52192;52.002;5.956;2024-02-26T14:37:38;9.20;84.90
39045;DHT22;52192;52.002;5.956;2024-02-26T14:40:04;9.20;84.90
39045;DHT22;52192;52.002;5.956;2024-02-26T14:42:30;9.20;84.90
39045;DHT22;52192;52.002;5.956;2024-02-26T14:44:56;9.10;84.90
39045;DHT22;52192;52.002;5.956;2024-02-26T14:47:22;9.10;84.90
39045;DHT22;52192;52.002;5.956;2024-02-26T14:49:47;9.00;85.00
39045;DHT22;52192;52.002;5.956;2024-02-26T14:52:14;9.00;85.10
39045;DHT22;52192;52.002;5.956;2024-02-26T14:54:40;9.00;85.10
39045;DHT22;52192;52.002;5.956;2024-02-26T14:57:06;9.00;85.10
39045;DHT22;52192;52.002;5.956;2024-02-26T14:59:33;9.00;85.10
39045;DHT22;52192;52.002;5.956;2024-02-26T15:01:59;9.00;85.10
39045;DHT22;52192;52.002;5.956;2024-02-26T15:04:28;9.00;85.00
39045;DHT22;52192;52.002;5.956;2024-02-26T15:06:54;8.90;85.00
39045;DHT22;52192;52.002;5.956;2024-02-26T15:09:19;8.90;85.00
39045;DHT22;52192;52.002;5.956;2024-02-26T15:11:46;8.90;85.10
39045;DHT22;52192;52.002;5.956;2024-02-26T15:14:12;8.90;85.10
39045;DHT22;52192;52.002;5.956;2024-02-26T15:16:37;8.90;85.00
39045;DHT22;52192;52.002;5.956;2024-02-26T15:19:03;8.90;85.10
39045;DHT22;52192;52.002;5.956;2024-02-26T15:21:29;8.90;85.70
39045;DHT22;52192;52.002;5.956;2024-02-26T15:23:55;8.80;85.10
39045;DHT22;52192;52.002;5.956;2024-02-26T15:26:21;8.80;85.10
39045;DHT22;52192;52.002;5.956;2024-02-26T15:28:47;8.80;85.30
39045;DHT22;52192;52.002;5.956;2024-02-26T15:31:17;8.70;85.20
39045;DHT22;52192;52.002;5.956;2024-02-26T15:33:43;8.70;85.10
39045;DHT22;52192;52.002;5.956;2024-02-26T15:36:09;8.70;85.10
39045;DHT22;52192;52.002;5.956;2024-02-26T15:38:36;8.70;85.10
39045;DHT22;52192;52.002;5.956;2024-02-26T15:41:02;8.70;85.10
39045;DHT22;52192;52.002;5.956;2024-02-26T15:43:27;8.60;85.20
39045;DHT22;52192;52.002;5.956;2024-02-26T15:45:53;8.60;85.30